sensor_id;sensor_type;location;lat;lon;timestamp;temperature;humidity
74420;DHT22;62855;50.718;-2.460;2023-02-28T00:02:06;37.58;71.00
74420;DHT22;62855;50.718;-2.460;2023-02-28T00:05:07;37.58;71.00
74420;DHT22;62855;50.718;-2.460;2023-02-28T00:08:06;37.40;71.00
74420;DHT22;62855;50.718;-2.460;2023-02-28T00:11:07;37.40;71.00
74420;DHT22;62855;50.718;-2.460;2023-02-28T00:14:05;37.22;71.00
74420;DHT22;62855;50.718;-2.460;2023-02-28T00:17:05;37.22;71.00
74420;DHT22;62855;50.718;-2.460;2023-02-28T00:20:07;37.22;71.00
74420;DHT22;62855;50.718;-2.460;2023-02-28T00:23:05;37.22;71.00
74420;DHT22;62855;50.718;-2.460;2023-02-28T00:26:06;37.04;71.00
74420;DHT22;62855;50.718;-2.460;2023-02-28T00:29:06;37.04;71.00
74420;DHT22;62855;50.718;-2.460;2023-02-28T00:32:06;37.04;71.00
74420;DHT22;62855;50.718;-2.460;2023-02-28T00:35:07;37.04;71.00
74420;DHT22;62855;50.718;-2.460;2023-02-28T00:38:06;37.04;71.00
74420;DHT22;62855;50.718;-2.460;2023-02-28T00:41:06;36.86;71.00
74420;DHT22;62855;50.718;-2.460;2023-02-28T00:44:05;36.86;71.00
74420;DHT22;62855;50.718;-2.460;2023-02-28T00:47:05;36.86;71.00
74420;DHT22;62855;50.718;-2.460;2023-02-28T00:50:07;36.86;71.00
74420;DHT22;62855;50.718;-2.460;2023-02-28T00:53:05;36.86;71.00
74420;DHT22;62855;50.718;-2.460;2023-02-28T00:56:06;36.86;70.00
74420;DHT22;62855;50.718;-2.460;2023-02-28T00:59:06;36.86;70.00
74420;DHT22;62855;50.718;-2.460;2023-02-28T01:02:06;36.86;70.00
74420;DHT22;62855;50.718;-2.460;2023-02-28T01:05:06;36.68;70.00
74420;DHT22;62855;50.718;-2.460;2023-02-28T01:08:06;36.68;70.00
74420;DHT22;62855;50.718;-2.460;2023-02-28T01:11:09;36.68;70.00
74420;DHT22;62855;50.718;-2.460;2023-02-28T01:14:06;36.68;70.00
74420;DHT22;62855;50.718;-2.460;2023-02-28T01:17:06;36.50;70.00
74420;DHT22;62855;50.718;-2.460;2023-02-28T01:20:07;36.32;70.00
74420;DHT22;62855;50.718;-2.460;2023-02-28T01:23:06;36.32;70.00
74420;DHT22;62855;50.718;-2.460;2023-02-28T01:26:07;36.14;70.00
74420;DHT22;62855;50.718;-2.460;2023-02-28T01:29:06;36.14;70.00
74420;DHT22;62855;50.718;-2.460;2023-02-28T01:32:06;35.96;70.00
74420;DHT22;62855;50.718;-2.460;2023-02-28T01:35:06;35.78;70.00
74420;DHT22;62855;50.718;-2.460;2023-02-28T01:38:06;35.60;70.00
74420;DHT22;62855;50.718;-2.460;2023-02-28T01:41:07;35.60;70.00
74420;DHT22;62855;50.718;-2.460;2023-02-28T01:44:07;35.60;70.00
74420;DHT22;62855;50.718;-2.460;2023-02-28T01:47:05;35.42;70.00
74420;DHT22;62855;50.718;-2.460;2023-02-28T01:50:11;35.42;71.00
74420;DHT22;62855;50.718;-2.460;2023-02-28T01:53:09;35.42;71.00
74420;DHT22;62855;50.718;-2.460;2023-02-28T01:56:07;35.42;71.00
74420;DHT22;62855;50.718;-2.460;2023-02-28T01:59:05;35.24;71.00
74420;DHT22;62855;50.718;-2.460;2023-02-28T02:02:06;35.24;71.00
74420;DHT22;62855;50.718;-2.460;2023-02-28T02:05:09;35.24;71.00
74420;DHT22;62855;50.718;-2.460;2023-02-28T02:08:09;35.24;71.00
74420;DHT22;62855;50.718;-2.460;2023-02-28T02:11:08;35.06;71.00
74420;DHT22;62855;50.718;-2.460;2023-02-28T02:14:17;35.06;71.00
74420;DHT22;62855;50.718;-2.460;2023-02-28T02:17:15;34.88;71.00
74420;DHT22;62855;50.718;-2.460;2023-02-28T02:23:24;34.70;71.00
74420;DHT22;62855;50.718;-2.460;2023-02-28T02:26:23;34.70;71.00
74420;DHT22;62855;50.718;-2.460;2023-02-28T02:29:22;34.52;72.00
74420;DHT22;62855;50.718;-2.460;2023-02-28T02:32:25;34.52;72.00
74420;DHT22;62855;50.718;-2.460;2023-02-28T02:35:12;34.52;72.00
74420;DHT22;62855;50.718;-2.460;2023-02-28T02:38:09;34.34;72.00
74420;DHT22;62855;50.718;-2.460;2023-02-28T02:41:11;34.34;72.00
74420;DHT22;62855;50.718;-2.460;2023-02-28T02:44:11;34.34;72.00
74420;DHT22;62855;50.718;-2.460;2023-02-28T02:47:09;34.34;73.00
74420;DHT22;62855;50.718;-2.460;2023-02-28T02:50:10;34.34;73.00
74420;DHT22;62855;50.718;-2.460;2023-02-28T02:53:07;34.16;73.00
74420;DHT22;62855;50.718;-2.460;2023-02-28T02:56:07;34.16;73.00
74420;DHT22;62855;50.718;-2.460;2023-02-28T02:59:08;34.16;73.00
74420;DHT22;62855;50.718;-2.460;2023-02-28T03:02:08;34.16;73.00
74420;DHT22;62855;50.718;-2.460;2023-02-28T03:05:12;34.16;73.00
74420;DHT22;62855;50.718;-2.460;2023-02-28T03:08:06;34.16;73.00
74420;DHT22;62855;50.718;-2.460;2023-02-28T03:11:11;33.98;73.00
74420;DHT22;62855;50.718;-2.460;2023-02-28T03:14:16;33.98;73.00
74420;DHT22;62855;50.718;-2.460;2023-02-28T03:17:17;33.98;73.00
74420;DHT22;62855;50.718;-2.460;2023-02-28T03:20:15;33.98;74.00
74420;DHT22;62855;50.718;-2.460;2023-02-28T03:23:13;33.80;74.00
74420;DHT22;62855;50.718;-2.460;2023-02-28T03:26:11;33.80;74.00
74420;DHT22;62855;50.718;-2.460;2023-02-28T03:29:14;33.80;74.00
74420;DHT22;62855;50.718;-2.460;2023-02-28T03:32:10;33.80;74.00
74420;DHT22;62855;50.718;-2.460;2023-02-28T03:35:09;33.62;74.00
74420;DHT22;62855;50.718;-2.460;2023-02-28T03:38:10;33.62;74.00
74420;DHT22;62855;50.718;-2.460;2023-02-28T03:41:17;33.62;74.00
74420;DHT22;62855;50.718;-2.460;2023-02-28T03:44:09;33.62;74.00
74420;DHT22;62855;50.718;-2.460;2023-02-28T03:47:10;33.44;74.00
74420;DHT22;62855;50.718;-2.460;2023-02-28T03:50:10;33.44;74.00
74420;DHT22;62855;50.718;-2.460;2023-02-28T03:53:10;33.44;74.00
74420;DHT22;62855;50.718;-2.460;2023-02-28T03:56:11;33.44;75.00
74420;DHT22;62855;50.718;-2.460;2023-02-28T03:59:09;33.44;75.00
74420;DHT22;62855;50.718;-2.460;2023-02-28T04:02:07;33.44;75.00
74420;DHT22;62855;50.718;-2.460;2023-02-28T04:05:07;33.44;75.00
74420;DHT22;62855;50.718;-2.460;2023-02-28T04:08:07;33.44;75.00
74420;DHT22;62855;50.718;-2.460;2023-02-28T04:11:11;33.44;76.00
74420;DHT22;62855;50.718;-2.460;2023-02-28T04:14:07;33.44;76.00
74420;DHT22;62855;50.718;-2.460;2023-02-28T04:17:06;33.44;76.00
74420;DHT22;62855;50.718;-2.460;2023-02-28T04:20:07;33.44;76.00
74420;DHT22;62855;50.718;-2.460;2023-02-28T04:23:06;33.44;76.00
74420;DHT22;62855;50.718;-2.460;2023-02-28T04:26:06;33.44;76.00
74420;DHT22;62855;50.718;-2.460;2023-02-28T04:29:07;33.44;76.00
74420;DHT22;62855;50.718;-2.460;2023-02-28T04:32:05;33.44;76.00
74420;DHT22;62855;50.718;-2.460;2023-02-28T04:35:07;33.26;76.00
74420;DHT22;62855;50.718;-2.460;2023-02-28T04:38:05;33.26;77.00
74420;DHT22;62855;50.718;-2.460;2023-02-28T04:41:06;33.26;77.00
74420;DHT22;62855;50.718;-2.460;2023-02-28T04:44:06;33.26;77.00
74420;DHT22;62855;50.718;-2.460;2023-02-28T04:47:06;33.26;77.00
74420;DHT22;62855;50.718;-2.460;2023-02-28T04:50:07;33.08;77.00
74420;DHT22;62855;50.718;-2.460;2023-02-28T04:53:06;33.08;77.00
74420;DHT22;62855;50.718;-2.460;2023-02-28T04:56:07;33.08;77.00
74420;DHT22;62855;50.718;-2.460;2023-02-28T04:59:06;33.08;77.00
74420;DHT22;62855;50.718;-2.460;2023-02-28T05:02:06;33.08;77.00
74420;DHT22;62855;50.718;-2.460;2023-02-28T05:05:06;32.90;77.00
74420;DHT22;62855;50.718;-2.460;2023-02-28T05:08:06;32.90;77.00
74420;DHT22;62855;50.718;-2.460;2023-02-28T05:11:08;32.90;77.00
74420;DHT22;62855;50.718;-2.460;2023-02-28T05:14:09;32.90;77.00
74420;DHT22;62855;50.718;-2.460;2023-02-28T05:17:06;32.72;77.00
74420;DHT22;62855;50.718;-2.460;2023-02-28T05:20:07;32.72;77.00
74420;DHT22;62855;50.718;-2.460;2023-02-28T05:23:07;32.72;78.00
74420;DHT22;62855;50.718;-2.460;2023-02-28T05:26:06;32.72;78.00
74420;DHT22;62855;50.718;-2.460;2023-02-28T05:29:06;32.72;78.00
74420;DHT22;62855;50.718;-2.460;2023-02-28T05:32:05;32.72;78.00
74420;DHT22;62855;50.718;-2.460;2023-02-28T05:35:06;32.54;78.00
74420;DHT22;62855;50.718;-2.460;2023-02-28T05:38:06;32.54;78.00
74420;DHT22;62855;50.718;-2.460;2023-02-28T05:41:07;32.54;78.00
74420;DHT22;62855;50.718;-2.460;2023-02-28T05:44:06;32.54;78.00
74420;DHT22;62855;50.718;-2.460;2023-02-28T05:47:06;32.36;78.00
74420;DHT22;62855;50.718;-2.460;2023-02-28T05:50:08;32.36;78.00
74420;DHT22;62855;50.718;-2.460;2023-02-28T05:53:06;32.36;78.00
74420;DHT22;62855;50.718;-2.460;2023-02-28T05:56:06;32.36;79.00
74420;DHT22;62855;50.718;-2.460;2023-02-28T05:59:06;32.36;79.00
74420;DHT22;62855;50.718;-2.460;2023-02-28T06:02:11;32.36;79.00
74420;DHT22;62855;50.718;-2.460;2023-02-28T06:05:09;32.36;79.00
74420;DHT22;62855;50.718;-2.460;2023-02-28T06:08:06;32.36;79.00
74420;DHT22;62855;50.718;-2.460;2023-02-28T06:11:06;32.36;79.00
74420;DHT22;62855;50.718;-2.460;2023-02-28T06:14:07;32.36;79.00
74420;DHT22;62855;50.718;-2.460;2023-02-28T06:17:06;32.36;79.00
74420;DHT22;62855;50.718;-2.460;2023-02-28T06:20:07;32.36;79.00
74420;DHT22;62855;50.718;-2.460;2023-02-28T06:23:06;32.36;80.00
74420;DHT22;62855;50.718;-2.460;2023-02-28T06:26:06;32.36;80.00
74420;DHT22;62855;50.718;-2.460;2023-02-28T06:29:06;32.36;80.00
74420;DHT22;62855;50.718;-2.460;2023-02-28T06:32:06;32.36;80.00
74420;DHT22;62855;50.718;-2.460;2023-02-28T06:35:07;32.36;80.00
74420;DHT22;62855;50.718;-2.460;2023-02-28T06:38:06;32.36;80.00
74420;DHT22;62855;50.718;-2.460;2023-02-28T06:41:06;32.36;80.00
74420;DHT22;62855;50.718;-2.460;2023-02-28T06:44:11;32.54;80.00
74420;DHT22;62855;50.718;-2.460;2023-02-28T06:47:06;32.72;80.00
74420;DHT22;62855;50.718;-2.460;2023-02-28T06:50:08;32.72;80.00
74420;DHT22;62855;50.718;-2.460;2023-02-28T06:53:05;32.72;80.00
74420;DHT22;62855;50.718;-2.460;2023-02-28T06:56:08;32.90;80.00
74420;DHT22;62855;50.718;-2.460;2023-02-28T06:59:06;32.90;80.00
74420;DHT22;62855;50.718;-2.460;2023-02-28T07:02:08;32.90;80.00
74420;DHT22;62855;50.718;-2.460;2023-02-28T07:05:06;32.90;80.00
74420;DHT22;62855;50.718;-2.460;2023-02-28T07:08:06;32.90;80.00
74420;DHT22;62855;50.718;-2.460;2023-02-28T07:11:06;33.08;80.00
74420;DHT22;62855;50.718;-2.460;2023-02-28T07:14:06;32.90;80.00
74420;DHT22;62855;50.718;-2.460;2023-02-28T07:17:07;32.90;80.00
74420;DHT22;62855;50.718;-2.460;2023-02-28T07:20:07;32.90;80.00
74420;DHT22;62855;50.718;-2.460;2023-02-28T07:23:06;33.08;80.00
74420;DHT22;62855;50.718;-2.460;2023-02-28T07:26:06;33.08;80.00
74420;DHT22;62855;50.718;-2.460;2023-02-28T07:29:05;33.26;81.00
74420;DHT22;62855;50.718;-2.460;2023-02-28T07:32:06;33.26;81.00
74420;DHT22;62855;50.718;-2.460;2023-02-28T07:35:07;33.26;81.00
74420;DHT22;62855;50.718;-2.460;2023-02-28T07:38:06;33.44;81.00
74420;DHT22;62855;50.718;-2.460;2023-02-28T07:41:06;33.44;81.00
74420;DHT22;62855;50.718;-2.460;2023-02-28T07:44:06;33.44;81.00
74420;DHT22;62855;50.718;-2.460;2023-02-28T07:47:07;33.62;81.00
74420;DHT22;62855;50.718;-2.460;2023-02-28T07:50:08;33.62;81.00
74420;DHT22;62855;50.718;-2.460;2023-02-28T07:53:05;33.80;81.00
74420;DHT22;62855;50.718;-2.460;2023-02-28T07:56:07;33.80;81.00
74420;DHT22;62855;50.718;-2.460;2023-02-28T07:59:06;33.98;81.00
74420;DHT22;62855;50.718;-2.460;2023-02-28T08:02:06;34.16;81.00
74420;DHT22;62855;50.718;-2.460;2023-02-28T08:05:06;34.34;81.00
74420;DHT22;62855;50.718;-2.460;2023-02-28T08:08:06;34.34;81.00
74420;DHT22;62855;50.718;-2.460;2023-02-28T08:11:05;34.70;81.00
74420;DHT22;62855;50.718;-2.460;2023-02-28T08:14:06;34.88;81.00
74420;DHT22;62855;50.718;-2.460;2023-02-28T08:17:06;35.24;81.00
74420;DHT22;62855;50.718;-2.460;2023-02-28T08:20:07;35.42;81.00
74420;DHT22;62855;50.718;-2.460;2023-02-28T08:23:05;35.78;81.00
74420;DHT22;62855;50.718;-2.460;2023-02-28T08:26:06;36.14;81.00
74420;DHT22;62855;50.718;-2.460;2023-02-28T08:29:06;36.32;81.00
74420;DHT22;62855;50.718;-2.460;2023-02-28T08:32:06;36.50;81.00
74420;DHT22;62855;50.718;-2.460;2023-02-28T08:35:07;36.68;81.00
74420;DHT22;62855;50.718;-2.460;2023-02-28T08:38:06;37.04;80.00
74420;DHT22;62855;50.718;-2.460;2023-02-28T08:41:08;37.40;80.00
74420;DHT22;62855;50.718;-2.460;2023-02-28T08:44:05;37.58;80.00
74420;DHT22;62855;50.718;-2.460;2023-02-28T08:47:05;37.94;80.00
74420;DHT22;62855;50.718;-2.460;2023-02-28T08:50:06;38.12;79.00
74420;DHT22;62855;50.718;-2.460;2023-02-28T08:53:06;38.12;78.00
74420;DHT22;62855;50.718;-2.460;2023-02-28T08:56:08;38.30;77.00
74420;DHT22;62855;50.718;-2.460;2023-02-28T08:59:08;38.48;76.00
74420;DHT22;62855;50.718;-2.460;2023-02-28T09:02:08;38.84;75.00
74420;DHT22;62855;50.718;-2.460;2023-02-28T09:05:07;39.02;75.00
74420;DHT22;62855;50.718;-2.460;2023-02-28T09:08:06;39.20;75.00
74420;DHT22;62855;50.718;-2.460;2023-02-28T09:11:07;39.56;74.00
74420;DHT22;62855;50.718;-2.460;2023-02-28T09:14:06;39.56;73.00
74420;DHT22;62855;50.718;-2.460;2023-02-28T09:17:06;39.74;73.00
74420;DHT22;62855;50.718;-2.460;2023-02-28T09:20:07;39.92;72.00
74420;DHT22;62855;50.718;-2.460;2023-02-28T09:23:07;40.10;71.00
74420;DHT22;62855;50.718;-2.460;2023-02-28T09:26:06;40.28;71.00
74420;DHT22;62855;50.718;-2.460;2023-02-28T09:29:06;40.28;70.00
74420;DHT22;62855;50.718;-2.460;2023-02-28T09:32:06;40.46;70.00
74420;DHT22;62855;50.718;-2.460;2023-02-28T09:35:07;40.64;70.00
74420;DHT22;62855;50.718;-2.460;2023-02-28T09:38:06;40.82;70.00
74420;DHT22;62855;50.718;-2.460;2023-02-28T09:42:11;41.00;70.00
74420;DHT22;62855;50.718;-2.460;2023-02-28T09:45:16;41.18;70.00
74420;DHT22;62855;50.718;-2.460;2023-02-28T09:48:10;41.18;70.00
74420;DHT22;62855;50.718;-2.460;2023-02-28T09:51:15;41.54;70.00
74420;DHT22;62855;50.718;-2.460;2023-02-28T09:54:10;41.54;69.00
74420;DHT22;62855;50.718;-2.460;2023-02-28T09:57:08;41.72;69.00
74420;DHT22;62855;50.718;-2.460;2023-02-28T10:00:13;41.72;69.00
74420;DHT22;62855;50.718;-2.460;2023-02-28T10:03:22;41.90;68.00
74420;DHT22;62855;50.718;-2.460;2023-02-28T10:06:10;41.72;67.00
74420;DHT22;62855;50.718;-2.460;2023-02-28T10:09:10;41.90;67.00
74420;DHT22;62855;50.718;-2.460;2023-02-28T10:12:06;41.90;67.00
74420;DHT22;62855;50.718;-2.460;2023-02-28T10:15:09;42.08;67.00
74420;DHT22;62855;50.718;-2.460;2023-02-28T10:18:10;42.08;67.00
74420;DHT22;62855;50.718;-2.460;2023-02-28T10:21:15;41.90;66.00
74420;DHT22;62855;50.718;-2.460;2023-02-28T10:24:16;41.90;66.00
74420;DHT22;62855;50.718;-2.460;2023-02-28T10:27:14;42.08;67.00
74420;DHT22;62855;50.718;-2.460;2023-02-28T10:30:09;42.62;67.00
74420;DHT22;62855;50.718;-2.460;2023-02-28T10:33:17;42.80;68.00
74420;DHT22;62855;50.718;-2.460;2023-02-28T10:36:13;42.98;67.00
74420;DHT22;62855;50.718;-2.460;2023-02-28T10:42:19;42.98;65.00
74420;DHT22;62855;50.718;-2.460;2023-02-28T10:45:12;42.98;65.00
74420;DHT22;62855;50.718;-2.460;2023-02-28T10:48:26;43.16;64.00
74420;DHT22;62855;50.718;-2.460;2023-02-28T10:51:07;43.16;63.00
74420;DHT22;62855;50.718;-2.460;2023-02-28T10:54:16;43.34;63.00
74420;DHT22;62855;50.718;-2.460;2023-02-28T10:57:09;43.52;63.00
74420;DHT22;62855;50.718;-2.460;2023-02-28T11:00:14;43.88;63.00
74420;DHT22;62855;50.718;-2.460;2023-02-28T11:03:24;44.42;60.00
74420;DHT22;62855;50.718;-2.460;2023-02-28T11:06:08;44.42;60.00
74420;DHT22;62855;50.718;-2.460;2023-02-28T11:09:18;44.24;62.00
74420;DHT22;62855;50.718;-2.460;2023-02-28T11:12:07;44.06;62.00
74420;DHT22;62855;50.718;-2.460;2023-02-28T11:15:20;43.70;62.00
74420;DHT22;62855;50.718;-2.460;2023-02-28T11:18:21;43.52;62.00
74420;DHT22;62855;50.718;-2.460;2023-02-28T11:21:07;43.52;62.00
74420;DHT22;62855;50.718;-2.460;2023-02-28T11:24:14;43.70;63.00
74420;DHT22;62855;50.718;-2.460;2023-02-28T11:27:10;44.24;63.00
74420;DHT22;62855;50.718;-2.460;2023-02-28T11:30:26;44.42;60.00
74420;DHT22;62855;50.718;-2.460;2023-02-28T11:33:27;44.42;60.00
74420;DHT22;62855;50.718;-2.460;2023-02-28T11:36:10;44.42;59.00
74420;DHT22;62855;50.718;-2.460;2023-02-28T11:39:10;44.06;61.00
74420;DHT22;62855;50.718;-2.460;2023-02-28T11:42:28;44.06;62.00
74420;DHT22;62855;50.718;-2.460;2023-02-28T11:45:21;44.24;62.00
74420;DHT22;62855;50.718;-2.460;2023-02-28T11:48:11;44.24;62.00
74420;DHT22;62855;50.718;-2.460;2023-02-28T11:51:13;44.42;60.00
74420;DHT22;62855;50.718;-2.460;2023-02-28T11:54:20;44.60;60.00
74420;DHT22;62855;50.718;-2.460;2023-02-28T11:57:19;44.60;59.00
74420;DHT22;62855;50.718;-2.460;2023-02-28T12:00:17;44.60;59.00
74420;DHT22;62855;50.718;-2.460;2023-02-28T12:03:15;44.60;59.00
74420;DHT22;62855;50.718;-2.460;2023-02-28T12:06:14;44.42;59.00
74420;DHT22;62855;50.718;-2.460;2023-02-28T12:09:16;44.24;62.00
74420;DHT22;62855;50.718;-2.460;2023-02-28T12:12:16;44.24;62.00
74420;DHT22;62855;50.718;-2.460;2023-02-28T12:15:20;44.24;62.00
74420;DHT22;62855;50.718;-2.460;2023-02-28T12:18:18;44.24;62.00
74420;DHT22;62855;50.718;-2.460;2023-02-28T12:21:14;44.24;62.00
74420;DHT22;62855;50.718;-2.460;2023-02-28T12:24:21;44.24;62.00
74420;DHT22;62855;50.718;-2.460;2023-02-28T12:27:09;44.24;62.00
74420;DHT22;62855;50.718;-2.460;2023-02-28T12:30:14;44.42;59.00
74420;DHT22;62855;50.718;-2.460;2023-02-28T12:33:09;44.60;60.00
74420;DHT22;62855;50.718;-2.460;2023-02-28T12:36:10;44.60;60.00
74420;DHT22;62855;50.718;-2.460;2023-02-28T12:39:10;44.42;60.00
74420;DHT22;62855;50.718;-2.460;2023-02-28T12:42:10;44.42;60.00
74420;DHT22;62855;50.718;-2.460;2023-02-28T12:45:10;44.42;60.00
74420;DHT22;62855;50.718;-2.460;2023-02-28T12:48:09;44.60;60.00
74420;DHT22;62855;50.718;-2.460;2023-02-28T12:51:07;44.60;60.00
74420;DHT22;62855;50.718;-2.460;2023-02-28T12:54:13;44.60;60.00
74420;DHT22;62855;50.718;-2.460;2023-02-28T12:57:11;44.60;60.00
74420;DHT22;62855;50.718;-2.460;2023-02-28T13:00:13;44.60;60.00
74420;DHT22;62855;50.718;-2.460;2023-02-28T13:03:27;44.78;60.00
74420;DHT22;62855;50.718;-2.460;2023-02-28T13:06:17;44.78;60.00
74420;DHT22;62855;50.718;-2.460;2023-02-28T13:09:09;44.78;60.00
74420;DHT22;62855;50.718;-2.460;2023-02-28T13:12:13;44.78;59.00
74420;DHT22;62855;50.718;-2.460;2023-02-28T13:15:12;44.78;60.00
74420;DHT22;62855;50.718;-2.460;2023-02-28T13:18:27;44.60;60.00
74420;DHT22;62855;50.718;-2.460;2023-02-28T13:21:07;44.60;59.00
74420;DHT22;62855;50.718;-2.460;2023-02-28T13:24:08;44.60;59.00
74420;DHT22;62855;50.718;-2.460;2023-02-28T13:27:23;44.78;60.00
74420;DHT22;62855;50.718;-2.460;2023-02-28T13:33:25;44.96;59.00
74420;DHT22;62855;50.718;-2.460;2023-02-28T13:36:09;44.96;58.00
74420;DHT22;62855;50.718;-2.460;2023-02-28T13:42:23;44.96;59.00
74420;DHT22;62855;50.718;-2.460;2023-02-28T13:45:23;45.14;58.00
74420;DHT22;62855;50.718;-2.460;2023-02-28T13:48:16;45.50;59.00
74420;DHT22;62855;50.718;-2.460;2023-02-28T13:51:30;46.22;60.00
74420;DHT22;62855;50.718;-2.460;2023-02-28T13:54:18;46.40;58.00
74420;DHT22;62855;50.718;-2.460;2023-02-28T13:57:15;46.40;58.00
74420;DHT22;62855;50.718;-2.460;2023-02-28T14:00:20;46.40;58.00
74420;DHT22;62855;50.718;-2.460;2023-02-28T14:03:14;46.22;57.00
74420;DHT22;62855;50.718;-2.460;2023-02-28T14:06:23;46.04;57.00
74420;DHT22;62855;50.718;-2.460;2023-02-28T14:09:17;46.04;57.00
74420;DHT22;62855;50.718;-2.460;2023-02-28T14:15:28;46.04;58.00
74420;DHT22;62855;50.718;-2.460;2023-02-28T14:18:15;46.04;58.00
74420;DHT22;62855;50.718;-2.460;2023-02-28T14:21:13;45.86;58.00
74420;DHT22;62855;50.718;-2.460;2023-02-28T14:24:26;45.86;58.00
74420;DHT22;62855;50.718;-2.460;2023-02-28T14:27:19;45.86;58.00
74420;DHT22;62855;50.718;-2.460;2023-02-28T14:30:29;45.86;58.00
74420;DHT22;62855;50.718;-2.460;2023-02-28T14:33:16;45.86;58.00
74420;DHT22;62855;50.718;-2.460;2023-02-28T14:36:12;45.86;57.00
74420;DHT22;62855;50.718;-2.460;2023-02-28T14:39:12;45.68;57.00
74420;DHT22;62855;50.718;-2.460;2023-02-28T14:42:27;45.68;58.00
74420;DHT22;62855;50.718;-2.460;2023-02-28T14:45:17;45.68;58.00
74420;DHT22;62855;50.718;-2.460;2023-02-28T14:48:09;45.86;59.00
74420;DHT22;62855;50.718;-2.460;2023-02-28T14:51:06;46.04;59.00
74420;DHT22;62855;50.718;-2.460;2023-02-28T14:54:06;46.22;59.00
74420;DHT22;62855;50.718;-2.460;2023-02-28T14:57:18;46.40;58.00
74420;DHT22;62855;50.718;-2.460;2023-02-28T15:00:13;46.58;57.00
74420;DHT22;62855;50.718;-2.460;2023-02-28T15:03:18;46.76;57.00
74420;DHT22;62855;50.718;-2.460;2023-02-28T15:06:13;46.58;56.00
74420;DHT22;62855;50.718;-2.460;2023-02-28T15:09:07;46.40;56.00
74420;DHT22;62855;50.718;-2.460;2023-02-28T15:12:07;46.22;56.00
74420;DHT22;62855;50.718;-2.460;2023-02-28T15:15:13;46.22;56.00
74420;DHT22;62855;50.718;-2.460;2023-02-28T15:18:07;46.22;56.00
74420;DHT22;62855;50.718;-2.460;2023-02-28T15:21:07;46.22;56.00
74420;DHT22;62855;50.718;-2.460;2023-02-28T15:24:10;46.22;57.00
74420;DHT22;62855;50.718;-2.460;2023-02-28T15:27:09;46.22;57.00
74420;DHT22;62855;50.718;-2.460;2023-02-28T15:30:12;46.40;57.00
74420;DHT22;62855;50.718;-2.460;2023-02-28T15:33:18;46.76;57.00
74420;DHT22;62855;50.718;-2.460;2023-02-28T15:36:12;46.76;57.00
74420;DHT22;62855;50.718;-2.460;2023-02-28T15:39:20;46.76;56.00
74420;DHT22;62855;50.718;-2.460;2023-02-28T15:42:18;46.76;56.00
74420;DHT22;62855;50.718;-2.460;2023-02-28T15:45:27;46.58;56.00
74420;DHT22;62855;50.718;-2.460;2023-02-28T15:48:14;46.58;56.00
74420;DHT22;62855;50.718;-2.460;2023-02-28T15:51:08;46.40;56.00
74420;DHT22;62855;50.718;-2.460;2023-02-28T15:54:07;46.22;57.00
74420;DHT22;62855;50.718;-2.460;2023-02-28T15:57:07;46.04;57.00
74420;DHT22;62855;50.718;-2.460;2023-02-28T16:00:11;46.04;58.00
74420;DHT22;62855;50.718;-2.460;2023-02-28T16:03:23;46.04;58.00
74420;DHT22;62855;50.718;-2.460;2023-02-28T16:06:21;45.86;59.00
74420;DHT22;62855;50.718;-2.460;2023-02-28T16:09:09;45.86;59.00
74420;DHT22;62855;50.718;-2.460;2023-02-28T16:12:05;45.86;59.00
74420;DHT22;62855;50.718;-2.460;2023-02-28T16:15:09;45.68;59.00
74420;DHT22;62855;50.718;-2.460;2023-02-28T16:18:08;45.68;59.00
74420;DHT22;62855;50.718;-2.460;2023-02-28T16:21:06;45.68;59.00
74420;DHT22;62855;50.718;-2.460;2023-02-28T16:24:06;45.68;59.00
74420;DHT22;62855;50.718;-2.460;2023-02-28T16:27:06;45.50;60.00
74420;DHT22;62855;50.718;-2.460;2023-02-28T16:30:13;45.50;60.00
74420;DHT22;62855;50.718;-2.460;2023-02-28T16:33:07;45.50;60.00
74420;DHT22;62855;50.718;-2.460;2023-02-28T16:36:08;45.50;60.00
74420;DHT22;62855;50.718;-2.460;2023-02-28T16:39:06;45.68;60.00
74420;DHT22;62855;50.718;-2.460;2023-02-28T16:42:06;45.68;60.00
74420;DHT22;62855;50.718;-2.460;2023-02-28T16:45:08;45.68;60.00
74420;DHT22;62855;50.718;-2.460;2023-02-28T16:48:11;45.68;60.00
74420;DHT22;62855;50.718;-2.460;2023-02-28T16:51:06;45.68;60.00
74420;DHT22;62855;50.718;-2.460;2023-02-28T16:54:06;45.68;60.00
74420;DHT22;62855;50.718;-2.460;2023-02-28T16:57:13;45.50;60.00
74420;DHT22;62855;50.718;-2.460;2023-02-28T17:00:08;45.50;60.00
74420;DHT22;62855;50.718;-2.460;2023-02-28T17:03:10;45.50;60.00
74420;DHT22;62855;50.718;-2.460;2023-02-28T17:06:08;45.50;61.00
74420;DHT22;62855;50.718;-2.460;2023-02-28T17:09:10;45.50;61.00
74420;DHT22;62855;50.718;-2.460;2023-02-28T17:12:07;45.32;61.00
74420;DHT22;62855;50.718;-2.460;2023-02-28T17:15:08;45.32;61.00
74420;DHT22;62855;50.718;-2.460;2023-02-28T17:18:06;45.14;61.00
74420;DHT22;62855;50.718;-2.460;2023-02-28T17:21:12;45.14;61.00
74420;DHT22;62855;50.718;-2.460;2023-02-28T17:24:06;44.96;62.00
74420;DHT22;62855;50.718;-2.460;2023-02-28T17:27:06;44.96;62.00
74420;DHT22;62855;50.718;-2.460;2023-02-28T17:30:14;44.78;62.00
74420;DHT22;62855;50.718;-2.460;2023-02-28T17:33:05;44.78;62.00
74420;DHT22;62855;50.718;-2.460;2023-02-28T17:36:10;44.78;62.00
74420;DHT22;62855;50.718;-2.460;2023-02-28T17:39:09;44.60;62.00
74420;DHT22;62855;50.718;-2.460;2023-02-28T17:42:06;44.60;62.00
74420;DHT22;62855;50.718;-2.460;2023-02-28T17:45:07;44.60;63.00
74420;DHT22;62855;50.718;-2.460;2023-02-28T17:48:09;44.60;63.00
74420;DHT22;62855;50.718;-2.460;2023-02-28T17:51:05;44.42;63.00
74420;DHT22;62855;50.718;-2.460;2023-02-28T17:54:06;44.42;63.00
74420;DHT22;62855;50.718;-2.460;2023-02-28T17:57:10;44.42;63.00
74420;DHT22;62855;50.718;-2.460;2023-02-28T18:00:07;44.42;63.00
74420;DHT22;62855;50.718;-2.460;2023-02-28T18:03:05;44.42;63.00
74420;DHT22;62855;50.718;-2.460;2023-02-28T18:06:08;44.42;63.00
74420;DHT22;62855;50.718;-2.460;2023-02-28T18:09:06;44.42;63.00
74420;DHT22;62855;50.718;-2.460;2023-02-28T18:12:06;44.42;63.00
74420;DHT22;62855;50.718;-2.460;2023-02-28T18:15:06;44.24;67.00
74420;DHT22;62855;50.718;-2.460;2023-02-28T18:18:05;44.24;68.00
74420;DHT22;62855;50.718;-2.460;2023-02-28T18:21:07;44.24;68.00
74420;DHT22;62855;50.718;-2.460;2023-02-28T18:24:06;44.24;68.00
74420;DHT22;62855;50.718;-2.460;2023-02-28T18:27:06;44.24;68.00
74420;DHT22;62855;50.718;-2.460;2023-02-28T18:30:07;44.24;68.00
74420;DHT22;62855;50.718;-2.460;2023-02-28T18:33:06;44.24;68.00
74420;DHT22;62855;50.718;-2.460;2023-02-28T18:36:07;44.24;68.00
74420;DHT22;62855;50.718;-2.460;2023-02-28T18:39:06;44.24;68.00
74420;DHT22;62855;50.718;-2.460;2023-02-28T18:42:06;44.24;68.00
74420;DHT22;62855;50.718;-2.460;2023-02-28T18:45:07;44.24;68.00
74420;DHT22;62855;50.718;-2.460;2023-02-28T18:48:06;44.24;68.00
74420;DHT22;62855;50.718;-2.460;2023-02-28T18:51:07;44.24;68.00
74420;DHT22;62855;50.718;-2.460;2023-02-28T18:54:06;44.06;68.00